sensor_id;sensor_type;location;lat;lon;timestamp;P1;durP1;ratioP1;P2;durP2;ratioP2
2928;SDS011;1474;51.460;7.150;2023-05-10T00:00:14;5.05;;;3.17;;
2928;SDS011;1474;51.460;7.150;2023-05-10T00:02:40;3.70;;;2.95;;
2928;SDS011;1474;51.460;7.150;2023-05-10T00:05:06;4.07;;;2.90;;
2928;SDS011;1474;51.460;7.150;2023-05-10T00:07:32;4.55;;;3.47;;
2928;SDS011;1474;51.460;7.150;2023-05-10T00:09:58;4.20;;;2.95;;
2928;SDS011;1474;51.460;7.150;2023-05-10T00:12:24;4.35;;;3.08;;
2928;SDS011;1474;51.460;7.150;2023-05-10T00:14:49;4.20;;;3.25;;
2928;SDS011;1474;51.460;7.150;2023-05-10T00:17:15;4.22;;;2.65;;
2928;SDS011;1474;51.460;7.150;2023-05-10T00:19:41;4.45;;;3.20;;
2928;SDS011;1474;51.460;7.150;2023-05-10T00:22:07;4.07;;;2.50;;
2928;SDS011;1474;51.460;7.150;2023-05-10T00:24:32;4.65;;;3.50;;
2928;SDS011;1474;51.460;7.150;2023-05-10T00:26:58;3.97;;;3.30;;
2928;SDS011;1474;51.460;7.150;2023-05-10T00:29:24;5.47;;;3.50;;
2928;SDS011;1474;51.460;7.150;2023-05-10T00:31:49;7.85;;;4.05;;
2928;SDS011;1474;51.460;7.150;2023-05-10T00:34:15;6.45;;;3.47;;
2928;SDS011;1474;51.460;7.150;2023-05-10T00:36:41;6.43;;;4.20;;
2928;SDS011;1474;51.460;7.150;2023-05-10T00:39:06;6.05;;;4.00;;
2928;SDS011;1474;51.460;7.150;2023-05-10T00:41:32;4.18;;;3.33;;
2928;SDS011;1474;51.460;7.150;2023-05-10T00:43:58;6.63;;;4.28;;
2928;SDS011;1474;51.460;7.150;2023-05-10T00:46:24;7.13;;;4.35;;
2928;SDS011;1474;51.460;7.150;2023-05-10T00:48:50;7.30;;;4.32;;
2928;SDS011;1474;51.460;7.150;2023-05-10T00:51:17;6.60;;;4.45;;
2928;SDS011;1474;51.460;7.150;2023-05-10T00:53:44;6.10;;;4.40;;
2928;SDS011;1474;51.460;7.150;2023-05-10T00:56:11;5.70;;;4.32;;
2928;SDS011;1474;51.460;7.150;2023-05-10T00:58:38;7.97;;;4.78;;
2928;SDS011;1474;51.460;7.150;2023-05-10T01:01:05;8.85;;;5.07;;
2928;SDS011;1474;51.460;7.150;2023-05-10T01:03:32;8.23;;;5.00;;
2928;SDS011;1474;51.460;7.150;2023-05-10T01:05:58;7.95;;;5.68;;
2928;SDS011;1474;51.460;7.150;2023-05-10T01:08:24;7.10;;;5.72;;
2928;SDS011;1474;51.460;7.150;2023-05-10T01:10:51;7.60;;;5.53;;
2928;SDS011;1474;51.460;7.150;2023-05-10T01:13:29;8.38;;;4.88;;
2928;SDS011;1474;51.460;7.150;2023-05-10T01:16:00;6.55;;;5.30;;
2928;SDS011;1474;51.460;7.150;2023-05-10T01:18:28;8.10;;;4.95;;
2928;SDS011;1474;51.460;7.150;2023-05-10T01:21:00;6.13;;;4.72;;
2928;SDS011;1474;51.460;7.150;2023-05-10T01:34:54;7.40;;;5.13;;
2928;SDS011;1474;51.460;7.150;2023-05-10T01:37:42;7.47;;;5.25;;
2928;SDS011;1474;51.460;7.150;2023-05-10T01:43:46;6.50;;;4.90;;
2928;SDS011;1474;51.460;7.150;2023-05-10T01:46:20;7.40;;;5.03;;
2928;SDS011;1474;51.460;7.150;2023-05-10T01:49:03;7.93;;;4.65;;
2928;SDS011;1474;51.460;7.150;2023-05-10T01:51:41;6.82;;;4.82;;
2928;SDS011;1474;51.460;7.150;2023-05-10T01:54:14;7.75;;;5.05;;
2928;SDS011;1474;51.460;7.150;2023-05-10T01:56:44;7.57;;;4.55;;
2928;SDS011;1474;51.460;7.150;2023-05-10T01:59:24;7.40;;;5.40;;
2928;SDS011;1474;51.460;7.150;2023-05-10T02:02:01;7.88;;;5.07;;
2928;SDS011;1474;51.460;7.150;2023-05-10T02:04:30;7.65;;;4.90;;
2928;SDS011;1474;51.460;7.150;2023-05-10T02:06:58;8.93;;;5.00;;
2928;SDS011;1474;51.460;7.150;2023-05-10T02:09:25;9.15;;;5.22;;
2928;SDS011;1474;51.460;7.150;2023-05-10T02:11:54;8.63;;;5.57;;
2928;SDS011;1474;51.460;7.150;2023-05-10T02:14:24;8.10;;;5.13;;
2928;SDS011;1474;51.460;7.150;2023-05-10T02:16:52;8.95;;;5.28;;
2928;SDS011;1474;51.460;7.150;2023-05-10T02:19:20;7.93;;;5.15;;
2928;SDS011;1474;51.460;7.150;2023-05-10T02:21:48;7.32;;;5.10;;
2928;SDS011;1474;51.460;7.150;2023-05-10T02:24:16;8.38;;;5.88;;
2928;SDS011;1474;51.460;7.150;2023-05-10T02:26:45;9.68;;;5.97;;
2928;SDS011;1474;51.460;7.150;2023-05-10T02:29:13;9.25;;;5.40;;
2928;SDS011;1474;51.460;7.150;2023-05-10T02:31:41;10.55;;;6.40;;
2928;SDS011;1474;51.460;7.150;2023-05-10T02:34:08;8.05;;;5.15;;
2928;SDS011;1474;51.460;7.150;2023-05-10T02:36:38;9.02;;;5.93;;
2928;SDS011;1474;51.460;7.150;2023-05-10T02:39:06;10.77;;;6.22;;
2928;SDS011;1474;51.460;7.150;2023-05-10T02:41:37;8.02;;;5.20;;
2928;SDS011;1474;51.460;7.150;2023-05-10T02:44:05;9.65;;;6.25;;
2928;SDS011;1474;51.460;7.150;2023-05-10T02:46:33;9.43;;;5.68;;
2928;SDS011;1474;51.460;7.150;2023-05-10T02:48:59;10.68;;;5.63;;
2928;SDS011;1474;51.460;7.150;2023-05-10T02:51:27;9.02;;;5.75;;
2928;SDS011;1474;51.460;7.150;2023-05-10T02:53:57;9.00;;;5.78;;
2928;SDS011;1474;51.460;7.150;2023-05-10T02:56:33;8.57;;;5.95;;
2928;SDS011;1474;51.460;7.150;2023-05-10T02:59:01;11.30;;;6.70;;
2928;SDS011;1474;51.460;7.150;2023-05-10T03:01:27;8.82;;;5.90;;
2928;SDS011;1474;51.460;7.150;2023-05-10T03:03:54;11.13;;;5.95;;
2928;SDS011;1474;51.460;7.150;2023-05-10T03:06:20;8.85;;;6.15;;
2928;SDS011;1474;51.460;7.150;2023-05-10T03:08:45;11.05;;;6.13;;
2928;SDS011;1474;51.460;7.150;2023-05-10T03:17:18;10.43;;;6.03;;
2928;SDS011;1474;51.460;7.150;2023-05-10T03:20:00;10.80;;;6.07;;
2928;SDS011;1474;51.460;7.150;2023-05-10T03:22:44;12.50;;;6.35;;
2928;SDS011;1474;51.460;7.150;2023-05-10T03:25:16;9.57;;;6.13;;
2928;SDS011;1474;51.460;7.150;2023-05-10T03:27:45;9.80;;;5.80;;
2928;SDS011;1474;51.460;7.150;2023-05-10T03:30:12;9.40;;;5.47;;
2928;SDS011;1474;51.460;7.150;2023-05-10T03:32:39;9.45;;;6.07;;
2928;SDS011;1474;51.460;7.150;2023-05-10T03:35:08;10.80;;;6.53;;
2928;SDS011;1474;51.460;7.150;2023-05-10T03:37:37;10.98;;;7.32;;
2928;SDS011;1474;51.460;7.150;2023-05-10T03:40:03;11.38;;;6.55;;
2928;SDS011;1474;51.460;7.150;2023-05-10T03:42:30;14.35;;;7.68;;
2928;SDS011;1474;51.460;7.150;2023-05-10T03:44:56;12.80;;;7.47;;
2928;SDS011;1474;51.460;7.150;2023-05-10T03:47:22;13.68;;;7.85;;
2928;SDS011;1474;51.460;7.150;2023-05-10T03:49:47;14.25;;;8.52;;
2928;SDS011;1474;51.460;7.150;2023-05-10T03:52:13;14.80;;;9.50;;
2928;SDS011;1474;51.460;7.150;2023-05-10T03:54:39;16.48;;;10.30;;
2928;SDS011;1474;51.460;7.150;2023-05-10T03:57:05;15.00;;;9.90;;
2928;SDS011;1474;51.460;7.150;2023-05-10T03:59:30;15.75;;;10.57;;
2928;SDS011;1474;51.460;7.150;2023-05-10T04:01:56;15.73;;;9.50;;
2928;SDS011;1474;51.460;7.150;2023-05-10T04:04:22;16.05;;;10.23;;
2928;SDS011;1474;51.460;7.150;2023-05-10T04:06:48;14.23;;;9.80;;
2928;SDS011;1474;51.460;7.150;2023-05-10T04:09:14;15.50;;;9.48;;
2928;SDS011;1474;51.460;7.150;2023-05-10T04:11:41;14.15;;;9.15;;
2928;SDS011;1474;51.460;7.150;2023-05-10T04:14:08;14.38;;;9.48;;
2928;SDS011;1474;51.460;7.150;2023-05-10T04:16:34;17.27;;;10.30;;
2928;SDS011;1474;51.460;7.150;2023-05-10T04:18:59;13.93;;;9.73;;
2928;SDS011;1474;51.460;7.150;2023-05-10T04:21:25;16.08;;;10.65;;
2928;SDS011;1474;51.460;7.150;2023-05-10T04:23:51;15.32;;;10.77;;
2928;SDS011;1474;51.460;7.150;2023-05-10T04:26:17;19.67;;;10.48;;
2928;SDS011;1474;51.460;7.150;2023-05-10T04:28:42;19.05;;;11.45;;
2928;SDS011;1474;51.460;7.150;2023-05-10T04:31:08;18.20;;;11.20;;
2928;SDS011;1474;51.460;7.150;2023-05-10T04:33:35;19.48;;;12.05;;
2928;SDS011;1474;51.460;7.150;2023-05-10T04:36:02;20.80;;;12.25;;
2928;SDS011;1474;51.460;7.150;2023-05-10T04:38:28;19.05;;;11.75;;
2928;SDS011;1474;51.460;7.150;2023-05-10T04:40:55;22.25;;;11.88;;
2928;SDS011;1474;51.460;7.150;2023-05-10T04:43:33;20.55;;;12.65;;
2928;SDS011;1474;51.460;7.150;2023-05-10T04:45:59;23.38;;;15.02;;
2928;SDS011;1474;51.460;7.150;2023-05-10T04:48:24;22.38;;;12.68;;
2928;SDS011;1474;51.460;7.150;2023-05-10T04:50:50;22.95;;;12.98;;
2928;SDS011;1474;51.460;7.150;2023-05-10T04:53:17;19.92;;;12.70;;
2928;SDS011;1474;51.460;7.150;2023-05-10T04:55:42;23.92;;;14.15;;
2928;SDS011;1474;51.460;7.150;2023-05-10T04:58:08;24.27;;;14.18;;
2928;SDS011;1474;51.460;7.150;2023-05-10T05:00:34;23.17;;;13.63;;
2928;SDS011;1474;51.460;7.150;2023-05-10T05:03:00;23.25;;;13.88;;
2928;SDS011;1474;51.460;7.150;2023-05-10T05:05:25;28.17;;;13.88;;
2928;SDS011;1474;51.460;7.150;2023-05-10T05:07:51;23.55;;;14.38;;
2928;SDS011;1474;51.460;7.150;2023-05-10T05:10:17;25.10;;;13.52;;
2928;SDS011;1474;51.460;7.150;2023-05-10T05:12:43;26.02;;;15.38;;
2928;SDS011;1474;51.460;7.150;2023-05-10T05:15:09;31.05;;;15.15;;
2928;SDS011;1474;51.460;7.150;2023-05-10T05:17:35;25.55;;;15.23;;
2928;SDS011;1474;51.460;7.150;2023-05-10T05:20:01;26.92;;;15.50;;
2928;SDS011;1474;51.460;7.150;2023-05-10T05:22:28;25.73;;;15.82;;
2928;SDS011;1474;51.460;7.150;2023-05-10T05:24:54;30.70;;;16.85;;
2928;SDS011;1474;51.460;7.150;2023-05-10T05:27:21;24.60;;;14.30;;
2928;SDS011;1474;51.460;7.150;2023-05-10T05:29:52;28.63;;;15.25;;
2928;SDS011;1474;51.460;7.150;2023-05-10T05:32:19;28.92;;;17.40;;
2928;SDS011;1474;51.460;7.150;2023-05-10T05:34:45;28.33;;;15.80;;
2928;SDS011;1474;51.460;7.150;2023-05-10T05:37:14;30.02;;;16.83;;
2928;SDS011;1474;51.460;7.150;2023-05-10T05:39:43;29.02;;;16.55;;
2928;SDS011;1474;51.460;7.150;2023-05-10T05:42:10;31.60;;;16.13;;
2928;SDS011;1474;51.460;7.150;2023-05-10T05:44:36;31.17;;;17.17;;
2928;SDS011;1474;51.460;7.150;2023-05-10T05:47:03;29.80;;;17.00;;
2928;SDS011;1474;51.460;7.150;2023-05-10T05:49:29;30.73;;;17.00;;
2928;SDS011;1474;51.460;7.150;2023-05-10T05:51:58;31.13;;;18.67;;
2928;SDS011;1474;51.460;7.150;2023-05-10T05:54:28;35.45;;;18.75;;
2928;SDS011;1474;51.460;7.150;2023-05-10T05:56:55;31.13;;;17.75;;
2928;SDS011;1474;51.460;7.150;2023-05-10T05:59:22;32.95;;;17.75;;
2928;SDS011;1474;51.460;7.150;2023-05-10T06:01:47;32.60;;;17.75;;
2928;SDS011;1474;51.460;7.150;2023-05-10T06:04:13;34.67;;;17.98;;
2928;SDS011;1474;51.460;7.150;2023-05-10T06:06:39;31.42;;;17.77;;
2928;SDS011;1474;51.460;7.150;2023-05-10T06:09:05;29.05;;;16.52;;
2928;SDS011;1474;51.460;7.150;2023-05-10T06:11:31;31.60;;;17.88;;
2928;SDS011;1474;51.460;7.150;2023-05-10T06:13:57;34.00;;;17.52;;
2928;SDS011;1474;51.460;7.150;2023-05-10T06:16:24;31.50;;;17.73;;
2928;SDS011;1474;51.460;7.150;2023-05-10T06:18:50;33.80;;;17.77;;
2928;SDS011;1474;51.460;7.150;2023-05-10T06:21:16;32.25;;;17.88;;
2928;SDS011;1474;51.460;7.150;2023-05-10T06:23:41;30.42;;;17.08;;
2928;SDS011;1474;51.460;7.150;2023-05-10T06:26:07;29.92;;;17.92;;
2928;SDS011;1474;51.460;7.150;2023-05-10T06:28:33;27.95;;;16.58;;
2928;SDS011;1474;51.460;7.150;2023-05-10T06:30:59;30.33;;;16.90;;
2928;SDS011;1474;51.460;7.150;2023-05-10T06:33:25;27.33;;;16.23;;
2928;SDS011;1474;51.460;7.150;2023-05-10T06:35:51;28.45;;;15.70;;
2928;SDS011;1474;51.460;7.150;2023-05-10T06:38:17;28.88;;;15.85;;
2928;SDS011;1474;51.460;7.150;2023-05-10T06:40:43;26.67;;;15.93;;
2928;SDS011;1474;51.460;7.150;2023-05-10T06:43:09;25.77;;;14.93;;
2928;SDS011;1474;51.460;7.150;2023-05-10T06:45:35;27.77;;;17.15;;
2928;SDS011;1474;51.460;7.150;2023-05-10T06:48:01;28.63;;;17.13;;
2928;SDS011;1474;51.460;7.150;2023-05-10T06:50:27;27.67;;;17.83;;
2928;SDS011;1474;51.460;7.150;2023-05-10T06:52:53;27.33;;;17.05;;
2928;SDS011;1474;51.460;7.150;2023-05-10T06:55:20;29.65;;;17.85;;
2928;SDS011;1474;51.460;7.150;2023-05-10T06:57:46;29.70;;;18.23;;
2928;SDS011;1474;51.460;7.150;2023-05-10T07:00:13;27.05;;;17.77;;
2928;SDS011;1474;51.460;7.150;2023-05-10T07:02:39;30.35;;;16.73;;
2928;SDS011;1474;51.460;7.150;2023-05-10T07:05:05;30.13;;;16.52;;
2928;SDS011;1474;51.460;7.150;2023-05-10T07:07:31;30.30;;;15.63;;
2928;SDS011;1474;51.460;7.150;2023-05-10T07:09:57;32.53;;;18.40;;
2928;SDS011;1474;51.460;7.150;2023-05-10T07:12:23;31.38;;;17.00;;
2928;SDS011;1474;51.460;7.150;2023-05-10T07:14:50;30.73;;;17.02;;
2928;SDS011;1474;51.460;7.150;2023-05-10T07:17:16;28.42;;;16.38;;
2928;SDS011;1474;51.460;7.150;2023-05-10T07:19:41;32.83;;;15.85;;
2928;SDS011;1474;51.460;7.150;2023-05-10T07:22:07;29.00;;;15.38;;
2928;SDS011;1474;51.460;7.150;2023-05-10T07:24:33;30.50;;;16.15;;
2928;SDS011;1474;51.460;7.150;2023-05-10T07:27:00;28.38;;;14.90;;
2928;SDS011;1474;51.460;7.150;2023-05-10T07:29:26;29.95;;;15.50;;
2928;SDS011;1474;51.460;7.150;2023-05-10T07:31:52;32.92;;;15.52;;
2928;SDS011;1474;51.460;7.150;2023-05-10T07:34:18;26.23;;;15.13;;
2928;SDS011;1474;51.460;7.150;2023-05-10T07:36:44;26.30;;;15.52;;
2928;SDS011;1474;51.460;7.150;2023-05-10T07:39:10;30.00;;;15.30;;
2928;SDS011;1474;51.460;7.150;2023-05-10T07:41:35;27.63;;;15.23;;
2928;SDS011;1474;51.460;7.150;2023-05-10T07:44:02;28.85;;;15.20;;
2928;SDS011;1474;51.460;7.150;2023-05-10T07:46:29;26.15;;;14.63;;
2928;SDS011;1474;51.460;7.150;2023-05-10T07:48:55;30.60;;;16.13;;
2928;SDS011;1474;51.460;7.150;2023-05-10T07:51:21;30.15;;;16.27;;
2928;SDS011;1474;51.460;7.150;2023-05-10T07:53:46;28.23;;;16.42;;
2928;SDS011;1474;51.460;7.150;2023-05-10T07:56:23;28.17;;;16.35;;
2928;SDS011;1474;51.460;7.150;2023-05-10T07:58:54;29.70;;;15.57;;
2928;SDS011;1474;51.460;7.150;2023-05-10T08:01:21;29.42;;;16.52;;
2928;SDS011;1474;51.460;7.150;2023-05-10T08:03:47;28.85;;;17.00;;
2928;SDS011;1474;51.460;7.150;2023-05-10T08:06:14;30.10;;;16.15;;
2928;SDS011;1474;51.460;7.150;2023-05-10T08:08:43;27.73;;;16.77;;
2928;SDS011;1474;51.460;7.150;2023-05-10T08:11:13;27.73;;;16.48;;
2928;SDS011;1474;51.460;7.150;2023-05-10T08:13:47;29.67;;;17.23;;
2928;SDS011;1474;51.460;7.150;2023-05-10T08:16:14;27.85;;;16.20;;
2928;SDS011;1474;51.460;7.150;2023-05-10T08:22:30;32.88;;;16.17;;
2928;SDS011;1474;51.460;7.150;2023-05-10T08:25:05;33.00;;;18.33;;
2928;SDS011;1474;51.460;7.150;2023-05-10T08:27:39;26.70;;;15.57;;
2928;SDS011;1474;51.460;7.150;2023-05-10T08:30:24;29.25;;;15.90;;
2928;SDS011;1474;51.460;7.150;2023-05-10T08:32:54;30.67;;;14.85;;
2928;SDS011;1474;51.460;7.150;2023-05-10T08:35:24;28.73;;;14.20;;
2928;SDS011;1474;51.460;7.150;2023-05-10T09:09:39;15.55;;;10.20;;
2928;SDS011;1474;51.460;7.150;2023-05-10T09:12:05;18.65;;;11.02;;
2928;SDS011;1474;51.460;7.150;2023-05-10T09:14:41;16.40;;;10.55;;
2928;SDS011;1474;51.460;7.150;2023-05-10T09:17:09;17.70;;;9.98;;
2928;SDS011;1474;51.460;7.150;2023-05-10T09:19:36;15.95;;;9.55;;
2928;SDS011;1474;51.460;7.150;2023-05-10T09:22:01;14.93;;;7.93;;
2928;SDS011;1474;51.460;7.150;2023-05-10T09:24:28;14.65;;;9.13;;
2928;SDS011;1474;51.460;7.150;2023-05-10T09:26:56;12.88;;;8.00;;
2928;SDS011;1474;51.460;7.150;2023-05-10T09:29:26;15.38;;;8.43;;
2928;SDS011;1474;51.460;7.150;2023-05-10T09:32:04;13.13;;;8.80;;
2928;SDS011;1474;51.460;7.150;2023-05-10T09:34:30;12.50;;;8.07;;
2928;SDS011;1474;51.460;7.150;2023-05-10T09:36:59;14.73;;;9.15;;
2928;SDS011;1474;51.460;7.150;2023-05-10T09:39:32;17.42;;;9.52;;
2928;SDS011;1474;51.460;7.150;2023-05-10T09:42:06;14.73;;;9.02;;
2928;SDS011;1474;51.460;7.150;2023-05-10T09:44:34;17.40;;;9.48;;
2928;SDS011;1474;51.460;7.150;2023-05-10T09:47:01;18.88;;;10.70;;
2928;SDS011;1474;51.460;7.150;2023-05-10T09:49:27;19.83;;;9.95;;
2928;SDS011;1474;51.460;7.150;2023-05-10T09:52:03;18.83;;;10.68;;
2928;SDS011;1474;51.460;7.150;2023-05-10T09:54:31;20.60;;;9.70;;
2928;SDS011;1474;51.460;7.150;2023-05-10T09:56:59;17.98;;;10.05;;
2928;SDS011;1474;51.460;7.150;2023-05-10T09:59:26;20.38;;;10.25;;
2928;SDS011;1474;51.460;7.150;2023-05-10T10:01:57;18.50;;;10.25;;
2928;SDS011;1474;51.460;7.150;2023-05-10T10:04:25;19.15;;;10.55;;
2928;SDS011;1474;51.460;7.150;2023-05-10T10:07:00;19.10;;;10.95;;
2928;SDS011;1474;51.460;7.150;2023-05-10T10:09:28;24.60;;;12.52;;
2928;SDS011;1474;51.460;7.150;2023-05-10T10:11:54;23.42;;;12.18;;
2928;SDS011;1474;51.460;7.150;2023-05-10T10:14:22;20.65;;;11.38;;
2928;SDS011;1474;51.460;7.150;2023-05-10T10:16:49;21.73;;;12.38;;
2928;SDS011;1474;51.460;7.150;2023-05-10T10:19:18;19.48;;;11.07;;
2928;SDS011;1474;51.460;7.150;2023-05-10T10:21:48;19.33;;;11.32;;
2928;SDS011;1474;51.460;7.150;2023-05-10T10:24:15;16.05;;;8.57;;
2928;SDS011;1474;51.460;7.150;2023-05-10T10:26:41;16.25;;;9.98;;
2928;SDS011;1474;51.460;7.150;2023-05-10T10:35:33;15.10;;;9.20;;
2928;SDS011;1474;51.460;7.150;2023-05-10T10:38:00;17.25;;;11.15;;
2928;SDS011;1474;51.460;7.150;2023-05-10T10:40:30;16.77;;;9.63;;
2928;SDS011;1474;51.460;7.150;2023-05-10T10:42:58;18.42;;;9.85;;
2928;SDS011;1474;51.460;7.150;2023-05-10T10:48:38;16.33;;;9.05;;
2928;SDS011;1474;51.460;7.150;2023-05-10T10:51:05;13.93;;;10.30;;
2928;SDS011;1474;51.460;7.150;2023-05-10T10:53:31;16.17;;;10.75;;
2928;SDS011;1474;51.460;7.150;2023-05-10T10:56:09;15.60;;;10.73;;
2928;SDS011;1474;51.460;7.150;2023-05-10T10:58:40;16.52;;;11.55;;
2928;SDS011;1474;51.460;7.150;2023-05-10T11:01:16;19.23;;;11.30;;
2928;SDS011;1474;51.460;7.150;2023-05-10T11:06:28;16.33;;;11.15;;
2928;SDS011;1474;51.460;7.150;2023-05-10T11:09:07;18.40;;;11.48;;
2928;SDS011;1474;51.460;7.150;2023-05-10T11:11:37;14.98;;;9.65;;
2928;SDS011;1474;51.460;7.150;2023-05-10T11:14:21;14.55;;;8.95;;
2928;SDS011;1474;51.460;7.150;2023-05-10T11:16:47;15.27;;;9.25;;
2928;SDS011;1474;51.460;7.150;2023-05-10T11:19:14;15.70;;;9.88;;
2928;SDS011;1474;51.460;7.150;2023-05-10T11:21:55;14.77;;;8.75;;
2928;SDS011;1474;51.460;7.150;2023-05-10T11:24:38;13.93;;;8.73;;
2928;SDS011;1474;51.460;7.150;2023-05-10T11:27:05;12.20;;;8.18;;
2928;SDS011;1474;51.460;7.150;2023-05-10T11:29:31;13.27;;;8.43;;
2928;SDS011;1474;51.460;7.150;2023-05-10T11:31:58;15.30;;;9.18;;
2928;SDS011;1474;51.460;7.150;2023-05-10T11:34:28;13.73;;;7.63;;
2928;SDS011;1474;51.460;7.150;2023-05-10T11:36:56;14.15;;;7.70;;
2928;SDS011;1474;51.460;7.150;2023-05-10T11:39:29;13.30;;;8.52;;
2928;SDS011;1474;51.460;7.150;2023-05-10T11:41:57;15.82;;;7.75;;
2928;SDS011;1474;51.460;7.150;2023-05-10T11:44:24;10.95;;;6.95;;
2928;SDS011;1474;51.460;7.150;2023-05-10T11:46:58;11.68;;;7.30;;
2928;SDS011;1474;51.460;7.150;2023-05-10T11:49:27;11.00;;;6.95;;
2928;SDS011;1474;51.460;7.150;2023-05-10T11:51:53;10.40;;;6.63;;
2928;SDS011;1474;51.460;7.150;2023-05-10T11:54:30;12.85;;;8.35;;
2928;SDS011;1474;51.460;7.150;2023-05-10T11:56:57;13.27;;;9.30;;
2928;SDS011;1474;51.460;7.150;2023-05-10T11:59:23;13.95;;;7.82;;
2928;SDS011;1474;51.460;7.150;2023-05-10T12:01:50;10.43;;;6.95;;
2928;SDS011;1474;51.460;7.150;2023-05-10T12:04:16;13.30;;;7.90;;
2928;SDS011;1474;51.460;7.150;2023-05-10T12:06:42;13.80;;;8.25;;
2928;SDS011;1474;51.460;7.150;2023-05-10T12:09:08;12.60;;;8.60;;
2928;SDS011;1474;51.460;7.150;2023-05-10T12:11:36;11.30;;;8.13;;
2928;SDS011;1474;51.460;7.150;2023-05-10T12:14:05;11.10;;;8.00;;
2928;SDS011;1474;51.460;7.150;2023-05-10T12:16:34;14.07;;;7.40;;
2928;SDS011;1474;51.460;7.150;2023-05-10T12:19:01;10.82;;;7.95;;
2928;SDS011;1474;51.460;7.150;2023-05-10T12:21:27;12.35;;;7.70;;
2928;SDS011;1474;51.460;7.150;2023-05-10T12:23:59;15.00;;;8.50;;
2928;SDS011;1474;51.460;7.150;2023-05-10T12:26:28;12.30;;;8.63;;
2928;SDS011;1474;51.460;7.150;2023-05-10T12:28:55;10.90;;;8.02;;
2928;SDS011;1474;51.460;7.150;2023-05-10T12:31:53;11.75;;;8.52;;
2928;SDS011;1474;51.460;7.150;2023-05-10T12:34:24;10.77;;;8.00;;
2928;SDS011;1474;51.460;7.150;2023-05-10T12:37:01;11.77;;;8.30;;
2928;SDS011;1474;51.460;7.150;2023-05-10T12:39:41;11.00;;;8.43;;
2928;SDS011;1474;51.460;7.150;2023-05-10T12:42:09;9.68;;;7.55;;
2928;SDS011;1474;51.460;7.150;2023-05-10T12:44:36;11.18;;;7.97;;
2928;SDS011;1474;51.460;7.150;2023-05-10T12:47:05;11.63;;;7.65;;
2928;SDS011;1474;51.460;7.150;2023-05-10T12:49:31;11.30;;;7.80;;
2928;SDS011;1474;51.460;7.150;2023-05-10T12:52:03;11.32;;;7.55;;
2928;SDS011;1474;51.460;7.150;2023-05-10T12:54:29;9.30;;;7.30;;
2928;SDS011;1474;51.460;7.150;2023-05-10T12:56:54;10.70;;;7.45;;
2928;SDS011;1474;51.460;7.150;2023-05-10T12:59:20;9.38;;;6.75;;
2928;SDS011;1474;51.460;7.150;2023-05-10T13:01:47;10.45;;;8.00;;
2928;SDS011;1474;51.460;7.150;2023-05-10T13:04:13;10.82;;;8.35;;
2928;SDS011;1474;51.460;7.150;2023-05-10T13:06:39;9.85;;;7.38;;
2928;SDS011;1474;51.460;7.150;2023-05-10T13:09:05;11.23;;;7.03;;
2928;SDS011;1474;51.460;7.150;2023-05-10T13:11:31;8.27;;;5.88;;
2928;SDS011;1474;51.460;7.150;2023-05-10T13:13:56;7.57;;;5.80;;
2928;SDS011;1474;51.460;7.150;2023-05-10T13:16:22;7.57;;;5.93;;
2928;SDS011;1474;51.460;7.150;2023-05-10T13:18:48;9.93;;;5.43;;
2928;SDS011;1474;51.460;7.150;2023-05-10T13:21:14;7.03;;;5.22;;
2928;SDS011;1474;51.460;7.150;2023-05-10T13:23:40;6.85;;;4.75;;
2928;SDS011;1474;51.460;7.150;2023-05-10T13:26:05;6.38;;;5.43;;
2928;SDS011;1474;51.460;7.150;2023-05-10T13:28:31;7.18;;;5.00;;
2928;SDS011;1474;51.460;7.150;2023-05-10T13:30:57;8.27;;;5.55;;
2928;SDS011;1474;51.460;7.150;2023-05-10T13:33:24;7.57;;;4.03;;
2928;SDS011;1474;51.460;7.150;2023-05-10T13:35:50;5.28;;;3.72;;
2928;SDS011;1474;51.460;7.150;2023-05-10T13:38:16;7.43;;;4.00;;
2928;SDS011;1474;51.460;7.150;2023-05-10T13:40:42;5.63;;;3.50;;
2928;SDS011;1474;51.460;7.150;2023-05-10T13:43:07;5.05;;;3.55;;
2928;SDS011;1474;51.460;7.150;2023-05-10T13:45:33;7.75;;;4.10;;
2928;SDS011;1474;51.460;7.150;2023-05-10T13:47:59;4.38;;;2.95;;
2928;SDS011;1474;51.460;7.150;2023-05-10T13:50:25;5.10;;;3.70;;
2928;SDS011;1474;51.460;7.150;2023-05-10T13:52:50;6.65;;;3.20;;
2928;SDS011;1474;51.460;7.150;2023-05-10T13:55:16;7.35;;;3.22;;
2928;SDS011;1474;51.460;7.150;2023-05-10T13:57:42;4.82;;;3.30;;
2928;SDS011;1474;51.460;7.150;2023-05-10T14:00:08;3.58;;;2.50;;
2928;SDS011;1474;51.460;7.150;2023-05-10T14:02:34;2.75;;;2.55;;
2928;SDS011;1474;51.460;7.150;2023-05-10T14:05:00;5.07;;;3.00;;
2928;SDS011;1474;51.460;7.150;2023-05-10T14:07:26;6.35;;;3.83;;
2928;SDS011;1474;51.460;7.150;2023-05-10T14:09:52;3.08;;;2.63;;
2928;SDS011;1474;51.460;7.150;2023-05-10T14:12:17;3.95;;;2.80;;
2928;SDS011;1474;51.460;7.150;2023-05-10T14:14:43;4.25;;;3.30;;
2928;SDS011;1474;51.460;7.150;2023-05-10T14:17:09;4.55;;;3.45;;
2928;SDS011;1474;51.460;7.150;2023-05-10T14:19:35;3.88;;;3.03;;
2928;SDS011;1474;51.460;7.150;2023-05-10T14:22:00;7.28;;;5.45;;
2928;SDS011;1474;51.460;7.150;2023-05-10T14:24:26;5.10;;;3.47;;
2928;SDS011;1474;51.460;7.150;2023-05-10T14:26:52;5.20;;;3.67;;
2928;SDS011;1474;51.460;7.150;2023-05-10T14:29:21;5.93;;;3.67;;
2928;SDS011;1474;51.460;7.150;2023-05-10T14:31:47;7.40;;;3.47;;
2928;SDS011;1474;51.460;7.150;2023-05-10T14:34:12;3.17;;;2.67;;
2928;SDS011;1474;51.460;7.150;2023-05-10T14:36:38;4.10;;;3.05;;
2928;SDS011;1474;51.460;7.150;2023-05-10T14:39:05;4.50;;;3.03;;
2928;SDS011;1474;51.460;7.150;2023-05-10T14:41:31;4.43;;;3.35;;
2928;SDS011;1474;51.460;7.150;2023-05-10T14:43:57;3.13;;;2.83;;
2928;SDS011;1474;51.460;7.150;2023-05-10T14:46:23;3.25;;;2.85;;
2928;SDS011;1474;51.460;7.150;2023-05-10T14:48:49;3.58;;;2.65;;
2928;SDS011;1474;51.460;7.150;2023-05-10T14:51:15;5.53;;;3.00;;
2928;SDS011;1474;51.460;7.150;2023-05-10T14:53:40;3.65;;;2.75;;
2928;SDS011;1474;51.460;7.150;2023-05-10T14:56:06;5.85;;;3.30;;
2928;SDS011;1474;51.460;7.150;2023-05-10T14:58:32;4.18;;;2.60;;
2928;SDS011;1474;51.460;7.150;2023-05-10T15:00:58;5.43;;;2.80;;
2928;SDS011;1474;51.460;7.150;2023-05-10T15:03:23;3.10;;;2.70;;
2928;SDS011;1474;51.460;7.150;2023-05-10T15:05:49;5.72;;;3.13;;
2928;SDS011;1474;51.460;7.150;2023-05-10T15:08:16;5.07;;;3.05;;
2928;SDS011;1474;51.460;7.150;2023-05-10T15:10:41;4.70;;;3.35;;
2928;SDS011;1474;51.460;7.150;2023-05-10T15:13:07;7.05;;;3.95;;
2928;SDS011;1474;51.460;7.150;2023-05-10T15:15:33;5.32;;;3.97;;
2928;SDS011;1474;51.460;7.150;2023-05-10T15:17:59;3.78;;;3.15;;
2928;SDS011;1474;51.460;7.150;2023-05-10T15:20:25;4.85;;;3.38;;
2928;SDS011;1474;51.460;7.150;2023-05-10T15:22:50;4.22;;;3.40;;
2928;SDS011;1474;51.460;7.150;2023-05-10T15:25:16;4.18;;;3.70;;
2928;SDS011;1474;51.460;7.150;2023-05-10T15:27:42;5.85;;;4.70;;
2928;SDS011;1474;51.460;7.150;2023-05-10T15:30:10;6.43;;;4.53;;
2928;SDS011;1474;51.460;7.150;2023-05-10T15:32:37;5.85;;;5.22;;
2928;SDS011;1474;51.460;7.150;2023-05-10T15:35:04;6.95;;;5.43;;
2928;SDS011;1474;51.460;7.150;2023-05-10T15:37:32;7.07;;;4.70;;
2928;SDS011;1474;51.460;7.150;2023-05-10T15:39:58;5.38;;;4.80;;
2928;SDS011;1474;51.460;7.150;2023-05-10T15:42:28;6.13;;;5.13;;
2928;SDS011;1474;51.460;7.150;2023-05-10T15:44:58;5.30;;;4.80;;
2928;SDS011;1474;51.460;7.150;2023-05-10T15:47:25;6.07;;;4.88;;
2928;SDS011;1474;51.460;7.150;2023-05-10T15:49:52;7.38;;;4.57;;
2928;SDS011;1474;51.460;7.150;2023-05-10T15:52:18;6.05;;;5.10;;
2928;SDS011;1474;51.460;7.150;2023-05-10T15:54:45;7.18;;;4.95;;
2928;SDS011;1474;51.460;7.150;2023-05-10T15:57:11;7.32;;;5.55;;
2928;SDS011;1474;51.460;7.150;2023-05-10T15:59:37;7.88;;;6.07;;
2928;SDS011;1474;51.460;7.150;2023-05-10T16:02:03;6.82;;;5.38;;
2928;SDS011;1474;51.460;7.150;2023-05-10T16:04:29;5.70;;;5.05;;
2928;SDS011;1474;51.460;7.150;2023-05-10T16:06:54;8.05;;;5.70;;
2928;SDS011;1474;51.460;7.150;2023-05-10T16:09:20;7.80;;;6.93;;
2928;SDS011;1474;51.460;7.150;2023-05-10T16:11:46;7.78;;;6.32;;
2928;SDS011;1474;51.460;7.150;2023-05-10T16:14:12;7.68;;;6.65;;